sensor_id;sensor_type;location;lat;lon;timestamp;pressure;altitude;pressure_sealevel;temperature;humidity
33286;BME280;19656;50.096;20.014;2023-02-16T00:11:14;99971.34;;;4.44;65.46
33286;BME280;19656;50.096;20.014;2023-02-16T00:30:47;99963.96;;;4.36;64.92
33286;BME280;19656;50.096;20.014;2023-02-16T00:49:02;99942.96;;;4.08;65.58
33286;BME280;19656;50.096;20.014;2023-02-16T00:54:58;99937.98;;;4.02;65.59
33286;BME280;19656;50.096;20.014;2023-02-16T01:08:32;99924.36;;;3.82;66.09
33286;BME280;19656;50.096;20.014;2023-02-16T01:25:18;99905.91;;;3.75;65.96
33286;BME280;19656;50.096;20.014;2023-02-16T01:31:23;99905.34;;;3.77;65.97
33286;BME280;19656;50.096;20.014;2023-02-16T01:37:25;99896.76;;;3.75;66.01
33286;BME280;19656;50.096;20.014;2023-02-16T01:43:44;99884.03;;;3.72;65.71
33286;BME280;19656;50.096;20.014;2023-02-16T01:55:36;99881.59;;;3.62;66.12
33286;BME280;19656;50.096;20.014;2023-02-16T02:01:59;99874.05;;;3.63;66.13
33286;BME280;19656;50.096;20.014;2023-02-16T02:07:04;99866.23;;;3.58;65.71
33286;BME280;19656;50.096;20.014;2023-02-16T02:17:23;99861.09;;;3.43;65.65
33286;BME280;19656;50.096;20.014;2023-02-16T02:28:16;99850.65;;;3.40;66.13
33286;BME280;19656;50.096;20.014;2023-02-16T02:33:47;99851.84;;;3.33;66.15
33286;BME280;19656;50.096;20.014;2023-02-16T02:39:18;99857.19;;;3.28;66.25
33286;BME280;19656;50.096;20.014;2023-02-16T02:44:29;99855.77;;;3.29;66.27
33286;BME280;19656;50.096;20.014;2023-02-16T02:49:34;99850.82;;;3.30;65.85
33286;BME280;19656;50.096;20.014;2023-02-16T02:54:38;99852.09;;;3.29;66.01
33286;BME280;19656;50.096;20.014;2023-02-16T03:05:32;99849.98;;;3.29;65.84
33286;BME280;19656;50.096;20.014;2023-02-16T03:10:36;99850.95;;;3.24;65.68
33286;BME280;19656;50.096;20.014;2023-02-16T03:16:03;99860.81;;;3.22;65.98
33286;BME280;19656;50.096;20.014;2023-02-16T03:21:11;99865.21;;;3.20;65.72
33286;BME280;19656;50.096;20.014;2023-02-16T03:26:35;99861.86;;;3.22;65.91
33286;BME280;19656;50.096;20.014;2023-02-16T03:31:58;99865.48;;;3.16;65.58
33286;BME280;19656;50.096;20.014;2023-02-16T03:37:03;99866.00;;;3.16;65.84
33286;BME280;19656;50.096;20.014;2023-02-16T03:42:07;99862.05;;;3.22;66.59
33286;BME280;19656;50.096;20.014;2023-02-16T03:47:11;99861.15;;;3.22;65.82
33286;BME280;19656;50.096;20.014;2023-02-16T03:52:14;99860.53;;;3.09;65.87
33286;BME280;19656;50.096;20.014;2023-02-16T03:57:17;99858.59;;;3.09;65.90
33286;BME280;19656;50.096;20.014;2023-02-16T04:02:21;99858.21;;;3.11;65.53
33286;BME280;19656;50.096;20.014;2023-02-16T04:07:25;99856.66;;;3.09;65.57
33286;BME280;19656;50.096;20.014;2023-02-16T04:12:29;99855.89;;;3.03;65.31
33286;BME280;19656;50.096;20.014;2023-02-16T04:17:41;99852.88;;;2.96;65.56
33286;BME280;19656;50.096;20.014;2023-02-16T04:22:47;99851.28;;;2.97;66.32
33286;BME280;19656;50.096;20.014;2023-02-16T04:27:51;99850.30;;;3.02;65.47
33286;BME280;19656;50.096;20.014;2023-02-16T04:32:55;99852.91;;;3.03;65.28
33286;BME280;19656;50.096;20.014;2023-02-16T04:38:01;99846.71;;;2.98;65.08
33286;BME280;19656;50.096;20.014;2023-02-16T04:43:04;99841.95;;;2.89;65.17
33286;BME280;19656;50.096;20.014;2023-02-16T04:48:07;99838.61;;;2.79;65.36
33286;BME280;19656;50.096;20.014;2023-02-16T04:53:11;99837.33;;;2.73;65.74
33286;BME280;19656;50.096;20.014;2023-02-16T04:58:15;99840.73;;;2.69;65.69
33286;BME280;19656;50.096;20.014;2023-02-16T05:03:19;99835.71;;;2.65;65.68
33286;BME280;19656;50.096;20.014;2023-02-16T05:08:22;99842.11;;;2.60;65.76
33286;BME280;19656;50.096;20.014;2023-02-16T05:13:26;99845.40;;;2.51;66.04
33286;BME280;19656;50.096;20.014;2023-02-16T05:18:48;99840.58;;;2.46;66.02
33286;BME280;19656;50.096;20.014;2023-02-16T05:23:51;99838.15;;;2.45;65.94
33286;BME280;19656;50.096;20.014;2023-02-16T05:28:55;99833.20;;;2.48;66.03
33286;BME280;19656;50.096;20.014;2023-02-16T05:33:59;99828.25;;;2.51;66.08
33286;BME280;19656;50.096;20.014;2023-02-16T05:39:02;99823.98;;;2.54;65.96
33286;BME280;19656;50.096;20.014;2023-02-16T05:44:07;99827.82;;;2.66;65.99
33286;BME280;19656;50.096;20.014;2023-02-16T05:49:11;99831.06;;;2.71;65.98
33286;BME280;19656;50.096;20.014;2023-02-16T05:54:14;99837.25;;;2.78;65.77
33286;BME280;19656;50.096;20.014;2023-02-16T05:59:21;99838.32;;;2.76;65.82
33286;BME280;19656;50.096;20.014;2023-02-16T06:04:24;99840.33;;;2.72;65.65
33286;BME280;19656;50.096;20.014;2023-02-16T06:09:28;99840.91;;;2.69;65.79
33286;BME280;19656;50.096;20.014;2023-02-16T06:14:33;99843.95;;;2.65;66.05
33286;BME280;19656;50.096;20.014;2023-02-16T06:19:36;99844.61;;;2.67;66.01
33286;BME280;19656;50.096;20.014;2023-02-16T06:24:40;99844.71;;;2.72;66.19
33286;BME280;19656;50.096;20.014;2023-02-16T06:29:44;99851.95;;;2.78;66.28
33286;BME280;19656;50.096;20.014;2023-02-16T06:34:47;99853.96;;;2.84;66.30
33286;BME280;19656;50.096;20.014;2023-02-16T06:39:50;99847.45;;;2.95;66.27
33286;BME280;19656;50.096;20.014;2023-02-16T06:44:54;99839.26;;;3.11;66.21
33286;BME280;19656;50.096;20.014;2023-02-16T06:49:57;99844.41;;;3.18;65.88
33286;BME280;19656;50.096;20.014;2023-02-16T06:55:02;99847.10;;;3.23;65.73
33286;BME280;19656;50.096;20.014;2023-02-16T07:00:06;99851.70;;;3.31;65.59
33286;BME280;19656;50.096;20.014;2023-02-16T07:05:10;99851.11;;;3.34;65.63
33286;BME280;19656;50.096;20.014;2023-02-16T07:10:13;99848.29;;;3.35;65.53
33286;BME280;19656;50.096;20.014;2023-02-16T07:15:17;99849.06;;;3.40;65.68
33286;BME280;19656;50.096;20.014;2023-02-16T07:20:21;99848.30;;;3.43;65.63
33286;BME280;19656;50.096;20.014;2023-02-16T07:25:24;99851.69;;;3.48;65.26
33286;BME280;19656;50.096;20.014;2023-02-16T07:30:28;99856.73;;;3.51;65.34
33286;BME280;19656;50.096;20.014;2023-02-16T07:35:35;99850.56;;;3.52;65.24
33286;BME280;19656;50.096;20.014;2023-02-16T07:40:39;99850.54;;;3.62;65.56
33286;BME280;19656;50.096;20.014;2023-02-16T07:45:43;99847.29;;;3.75;65.37
33286;BME280;19656;50.096;20.014;2023-02-16T07:50:46;99836.30;;;3.88;64.98
33286;BME280;19656;50.096;20.014;2023-02-16T07:55:50;99841.89;;;4.05;64.52
33286;BME280;19656;50.096;20.014;2023-02-16T08:01:06;99838.31;;;4.16;64.38
33286;BME280;19656;50.096;20.014;2023-02-16T08:06:11;99833.93;;;4.23;64.06
33286;BME280;19656;50.096;20.014;2023-02-16T08:11:20;99834.61;;;4.31;63.80
33286;BME280;19656;50.096;20.014;2023-02-16T08:16:26;99833.39;;;4.30;63.57
33286;BME280;19656;50.096;20.014;2023-02-16T08:21:32;99834.20;;;4.33;63.59
33286;BME280;19656;50.096;20.014;2023-02-16T08:26:38;99836.34;;;4.32;63.65
33286;BME280;19656;50.096;20.014;2023-02-16T08:31:43;99837.61;;;4.37;63.65
33286;BME280;19656;50.096;20.014;2023-02-16T08:36:53;99828.92;;;4.48;63.65
33286;BME280;19656;50.096;20.014;2023-02-16T08:42:00;99819.67;;;4.60;63.86
33286;BME280;19656;50.096;20.014;2023-02-16T08:47:04;99816.72;;;4.72;63.55
33286;BME280;19656;50.096;20.014;2023-02-16T08:52:08;99814.82;;;4.85;62.91
33286;BME280;19656;50.096;20.014;2023-02-16T08:57:12;99809.37;;;4.91;62.83
33286;BME280;19656;50.096;20.014;2023-02-16T09:02:15;99812.14;;;5.07;62.54
33286;BME280;19656;50.096;20.014;2023-02-16T09:07:20;99812.11;;;5.14;62.34
33286;BME280;19656;50.096;20.014;2023-02-16T09:12:24;99810.26;;;5.23;62.34
33286;BME280;19656;50.096;20.014;2023-02-16T09:17:28;99808.35;;;5.41;62.72
33286;BME280;19656;50.096;20.014;2023-02-16T09:22:31;99806.70;;;5.61;61.89
33286;BME280;19656;50.096;20.014;2023-02-16T09:27:36;99804.98;;;5.78;60.96
33286;BME280;19656;50.096;20.014;2023-02-16T09:32:39;99802.45;;;5.92;61.05
33286;BME280;19656;50.096;20.014;2023-02-16T09:37:43;99800.92;;;6.13;60.36
33286;BME280;19656;50.096;20.014;2023-02-16T09:43:02;99790.81;;;6.32;60.41
33286;BME280;19656;50.096;20.014;2023-02-16T09:48:21;99792.07;;;6.53;59.44
33286;BME280;19656;50.096;20.014;2023-02-16T09:53:38;99792.73;;;6.64;58.64
33286;BME280;19656;50.096;20.014;2023-02-16T09:58:50;99790.22;;;6.76;58.68
33286;BME280;19656;50.096;20.014;2023-02-16T10:04:19;99789.21;;;6.90;58.19
33286;BME280;19656;50.096;20.014;2023-02-16T10:09:28;99792.95;;;6.99;58.57
33286;BME280;19656;50.096;20.014;2023-02-16T10:14:44;99788.38;;;7.18;58.11
33286;BME280;19656;50.096;20.014;2023-02-16T10:19:54;99787.48;;;7.33;57.46
33286;BME280;19656;50.096;20.014;2023-02-16T10:25:23;99787.84;;;7.47;57.03
33286;BME280;19656;50.096;20.014;2023-02-16T10:30:28;99784.77;;;7.63;56.72
33286;BME280;19656;50.096;20.014;2023-02-16T10:35:46;99783.16;;;7.82;56.32
33286;BME280;19656;50.096;20.014;2023-02-16T10:46:38;99775.30;;;8.29;55.28
33286;BME280;19656;50.096;20.014;2023-02-16T10:51:46;99769.89;;;8.45;54.40
33286;BME280;19656;50.096;20.014;2023-02-16T10:57:01;99763.67;;;8.62;54.46
33286;BME280;19656;50.096;20.014;2023-02-16T11:07:29;99749.19;;;8.95;54.25
33286;BME280;19656;50.096;20.014;2023-02-16T11:12:39;99740.86;;;9.11;53.96
33286;BME280;19656;50.096;20.014;2023-02-16T11:17:56;99727.64;;;9.29;52.67
33286;BME280;19656;50.096;20.014;2023-02-16T11:23:24;99723.77;;;9.40;51.03
33286;BME280;19656;50.096;20.014;2023-02-16T11:28:36;99717.12;;;9.42;49.53
33286;BME280;19656;50.096;20.014;2023-02-16T11:33:41;99701.49;;;9.36;49.70
33286;BME280;19656;50.096;20.014;2023-02-16T11:38:57;99695.74;;;9.41;49.82
33286;BME280;19656;50.096;20.014;2023-02-16T11:44:02;99686.39;;;9.44;49.03
33286;BME280;19656;50.096;20.014;2023-02-16T11:49:39;99681.32;;;9.51;49.01
33286;BME280;19656;50.096;20.014;2023-02-16T11:54:54;99677.09;;;9.54;48.37
33286;BME280;19656;50.096;20.014;2023-02-16T11:59:59;99674.52;;;9.60;47.58
33286;BME280;19656;50.096;20.014;2023-02-16T12:31:31;99637.12;;;10.16;46.81
33286;BME280;19656;50.096;20.014;2023-02-16T12:36:44;99628.90;;;10.22;46.80
33286;BME280;19656;50.096;20.014;2023-02-16T12:42:22;99624.30;;;10.36;46.64
33286;BME280;19656;50.096;20.014;2023-02-16T12:47:41;99619.99;;;10.44;46.14
33286;BME280;19656;50.096;20.014;2023-02-16T12:52:55;99617.88;;;10.54;46.31
33286;BME280;19656;50.096;20.014;2023-02-16T12:58:27;99605.05;;;10.58;46.82
33286;BME280;19656;50.096;20.014;2023-02-16T13:09:02;99598.67;;;10.81;46.21
33286;BME280;19656;50.096;20.014;2023-02-16T13:14:13;99596.23;;;10.93;45.94
33286;BME280;19656;50.096;20.014;2023-02-16T13:19:19;99589.75;;;10.98;45.95
33286;BME280;19656;50.096;20.014;2023-02-16T13:24:34;99592.17;;;10.99;45.53
33286;BME280;19656;50.096;20.014;2023-02-16T13:41:28;99581.16;;;11.47;44.78
33286;BME280;19656;50.096;20.014;2023-02-16T13:46:30;99573.04;;;11.55;44.28
33286;BME280;19656;50.096;20.014;2023-02-16T13:51:44;99565.04;;;11.55;44.10
33286;BME280;19656;50.096;20.014;2023-02-16T13:56:49;99568.14;;;11.57;44.44
33286;BME280;19656;50.096;20.014;2023-02-16T14:01:55;99566.14;;;11.58;44.55
33286;BME280;19656;50.096;20.014;2023-02-16T14:32:48;99569.41;;;11.09;44.91
33286;BME280;19656;50.096;20.014;2023-02-16T14:38:02;99570.44;;;10.94;45.00
33286;BME280;19656;50.096;20.014;2023-02-16T14:43:32;99568.70;;;10.84;45.46
33286;BME280;19656;50.096;20.014;2023-02-16T14:54:49;99568.68;;;10.84;45.77
33286;BME280;19656;50.096;20.014;2023-02-16T15:05:35;99554.86;;;10.77;45.92
33286;BME280;19656;50.096;20.014;2023-02-16T15:10:43;99554.20;;;10.76;45.97
33286;BME280;19656;50.096;20.014;2023-02-16T15:15:51;99545.74;;;10.75;46.38
33286;BME280;19656;50.096;20.014;2023-02-16T15:20:58;99547.73;;;10.71;46.40
33286;BME280;19656;50.096;20.014;2023-02-16T15:26:06;99548.14;;;10.64;46.34
33286;BME280;19656;50.096;20.014;2023-02-16T15:31:18;99553.62;;;10.51;46.95
33286;BME280;19656;50.096;20.014;2023-02-16T16:58:05;99565.23;;;9.56;50.91
33286;BME280;19656;50.096;20.014;2023-02-16T17:15:24;99572.70;;;9.48;52.07
33286;BME280;19656;50.096;20.014;2023-02-16T17:20:59;99574.48;;;9.30;52.12
33286;BME280;19656;50.096;20.014;2023-02-16T17:27:09;99580.58;;;9.20;52.17
33286;BME280;19656;50.096;20.014;2023-02-16T17:32:28;99584.23;;;9.07;52.46
33286;BME280;19656;50.096;20.014;2023-02-16T17:37:51;99583.77;;;9.02;52.30
33286;BME280;19656;50.096;20.014;2023-02-16T17:43:19;99588.77;;;8.93;52.07
33286;BME280;19656;50.096;20.014;2023-02-16T17:48:55;99590.13;;;8.87;51.99
33286;BME280;19656;50.096;20.014;2023-02-16T17:54:16;99586.70;;;8.80;51.90
33286;BME280;19656;50.096;20.014;2023-02-16T17:59:27;99586.80;;;8.73;51.78
33286;BME280;19656;50.096;20.014;2023-02-16T18:04:48;99590.50;;;8.67;51.49
33286;BME280;19656;50.096;20.014;2023-02-16T18:10:15;99594.30;;;8.57;51.73
33286;BME280;19656;50.096;20.014;2023-02-16T18:21:53;99593.83;;;8.44;51.67
33286;BME280;19656;50.096;20.014;2023-02-16T18:27:23;99594.45;;;8.37;51.79
33286;BME280;19656;50.096;20.014;2023-02-16T18:33:29;99601.31;;;8.29;51.89
33286;BME280;19656;50.096;20.014;2023-02-16T18:45:16;99609.74;;;8.06;52.32
33286;BME280;19656;50.096;20.014;2023-02-16T18:50:50;99616.09;;;7.94;52.52
33286;BME280;19656;50.096;20.014;2023-02-16T18:56:35;99617.23;;;7.84;52.68
33286;BME280;19656;50.096;20.014;2023-02-16T19:14:34;99626.05;;;7.22;54.34
33286;BME280;19656;50.096;20.014;2023-02-16T19:19:59;99628.86;;;7.23;54.91
33286;BME280;19656;50.096;20.014;2023-02-16T19:25:30;99634.66;;;7.23;54.37
33286;BME280;19656;50.096;20.014;2023-02-16T20:01:55;99614.91;;;6.95;55.00
33286;BME280;19656;50.096;20.014;2023-02-16T20:08:35;99619.80;;;6.83;55.04
33286;BME280;19656;50.096;20.014;2023-02-16T20:14:42;99621.19;;;6.74;55.29
33286;BME280;19656;50.096;20.014;2023-02-16T20:25:44;99621.17;;;6.60;55.56
33286;BME280;19656;50.096;20.014;2023-02-16T20:37:40;99619.15;;;6.57;55.61
33286;BME280;19656;50.096;20.014;2023-02-16T20:48:55;99627.42;;;6.43;56.04
33286;BME280;19656;50.096;20.014;2023-02-16T20:54:31;99628.98;;;6.44;56.23
33286;BME280;19656;50.096;20.014;2023-02-16T21:00:15;99628.67;;;6.37;56.32
33286;BME280;19656;50.096;20.014;2023-02-16T21:05:43;99620.33;;;6.30;56.25
33286;BME280;19656;50.096;20.014;2023-02-16T21:11:31;99616.49;;;6.18;56.48
33286;BME280;19656;50.096;20.014;2023-02-16T21:16:50;99616.27;;;5.93;56.77
33286;BME280;19656;50.096;20.014;2023-02-16T21:22:40;99616.19;;;5.80;57.19
33286;BME280;19656;50.096;20.014;2023-02-16T21:28:35;99622.84;;;5.70;57.84
33286;BME280;19656;50.096;20.014;2023-02-16T21:33:44;99619.36;;;5.74;57.68
33286;BME280;19656;50.096;20.014;2023-02-16T21:39:54;99617.46;;;5.73;57.63
33286;BME280;19656;50.096;20.014;2023-02-16T21:51:52;99608.46;;;5.73;57.86
33286;BME280;19656;50.096;20.014;2023-02-16T22:10:27;99616.67;;;5.86;57.76
33286;BME280;19656;50.096;20.014;2023-02-16T22:16:29;99612.55;;;5.88;57.57
33286;BME280;19656;50.096;20.014;2023-02-16T22:41:14;99607.98;;;5.77;57.76
33286;BME280;19656;50.096;20.014;2023-02-16T22:46:48;99602.88;;;5.77;57.80
33286;BME280;19656;50.096;20.014;2023-02-16T23:17:11;99618.08;;;5.49;58.63
33286;BME280;19656;50.096;20.014;2023-02-16T23:23:36;99614.11;;;5.52;58.95
33286;BME280;19656;50.096;20.014;2023-02-16T23:29:01;99613.80;;;5.61;58.51
33286;BME280;19656;50.096;20.014;2023-02-16T23:34:50;99612.11;;;5.59;58.60
33286;BME280;19656;50.096;20.014;2023-02-16T23:40:43;99610.25;;;5.51;58.74
33286;BME280;19656;50.096;20.014;2023-02-16T23:46:17;99610.25;;;5.51;59.18
33286;BME280;19656;50.096;20.014;2023-02-16T23:58:41;99605.21;;;5.65;59.11
